Time;durP1;ratioP1;P1;durP2;ratioP2;P2;SDS_P1;SDS_P2;PMS_P1;PMS_P2;Temp;Humidity;BMP_temperature;BMP_pressure;BME280_temperature;BME280_humidity;BME280_pressure;Samples;Min_cycle;Max_cycle;Signal;HPM_P1;HPM_P2
2022/08/21 00:26:35;;;;;;;7.57;6.87;;;;;;;;;;4824701;29;20206;-71
2022/08/21 00:30:28;;;;;;;7.20;6.50;;;;;;;;;;4834424;29;20796;-71
2022/08/21 00:34:11;;;;;;;7.60;6.87;;;;;;;;;;4835730;29;20320;-71
2022/08/21 00:37:44;;;;;;;7.80;7.10;;;;;;;;;;4795797;29;20290;-71
2022/08/21 00:41:22;;;;;;;7.03;5.60;;;;;;;;;;4872985;29;20288;-72
2022/08/21 00:45:40;;;;;;;6.93;5.53;;;;;;;;;;4887636;29;20315;-71
2022/08/21 00:49:28;;;;;;;7.20;5.90;;;;;;;;;;4893205;29;20248;-71
2022/08/21 00:53:30;;;;;;;7.23;6.30;;;;;;;;;;4887302;29;20184;-71
2022/08/21 00:57:02;;;;;;;6.57;5.77;;;;;;;;;;4904307;29;20230;-71
2022/08/21 01:00:16;;;;;;;6.20;5.57;;;;;;;;;;4935314;29;20311;-71
2022/08/21 01:03:23;;;;;;;5.90;5.30;;;;;;;;;;4946011;28;20209;-70
2022/08/21 01:06:28;;;;;;;6.47;5.87;;;;;;;;;;4950275;29;20245;-71
2022/08/21 01:09:15;;;;;;;5.83;5.33;;;;;;;;;;4948581;29;20265;-71
2022/08/21 01:11:55;;;;;;;6.10;5.50;;;;;;;;;;4957338;28;20228;-71
2022/08/21 01:14:48;;;;;;;5.80;5.17;;;;;;;;;;4978537;28;20233;-71
2022/08/21 01:17:15;;;;;;;5.57;5.07;;;;;;;;;;4993301;28;20226;-71
2022/08/21 01:19:56;;;;;;;6.00;5.50;;;;;;;;;;5063786;28;20248;-71
2022/08/21 01:22:48;;;;;;;7.63;5.10;;;;;;;;;;5049661;28;20225;-70
2022/08/21 01:25:39;;;;;;;5.50;5.00;;;;;;;;;;5050237;28;20198;-71
2022/08/21 01:28:11;;;;;;;6.97;6.37;;;;;;;;;;5031852;28;20193;-71
2022/08/21 01:30:38;;;;;;;6.77;6.17;;;;;;;;;;5057155;28;20195;-71
2022/08/21 01:33:10;;;;;;;6.93;6.30;;;;;;;;;;5050307;28;20183;-71
2022/08/21 01:35:42;;;;;;;6.60;6.00;;;;;;;;;;5031326;28;20264;-71
2022/08/21 01:38:09;;;;;;;6.93;6.33;;;;;;;;;;5031751;28;20721;-71
2022/08/21 01:40:36;;;;;;;7.70;6.50;;;;;;;;;;5031402;28;20193;-71
2022/08/21 01:43:10;;;;;;;7.30;6.60;;;;;;;;;;5047380;28;20589;-71
2022/08/21 01:46:12;;;;;;;6.93;6.30;;;;;;;;;;5046053;28;20191;-71
2022/08/21 01:48:53;;;;;;;7.40;6.70;;;;;;;;;;5018772;28;20191;-71
2022/08/21 01:51:25;;;;;;;8.70;7.20;;;;;;;;;;5045625;28;20198;-71
2022/08/21 01:53:52;;;;;;;8.10;7.30;;;;;;;;;;5064052;28;20186;-71
2022/08/21 01:56:20;;;;;;;7.87;7.17;;;;;;;;;;5047628;28;20229;-71
2022/08/21 01:58:47;;;;;;;7.87;7.17;;;;;;;;;;5063627;28;20203;-71
2022/08/21 02:01:14;;;;;;;8.23;7.43;;;;;;;;;;5063717;28;20285;-72
2022/08/21 02:03:41;;;;;;;8.43;7.47;;;;;;;;;;5048192;28;20646;-72
2022/08/21 02:06:11;;;;;;;8.43;7.63;;;;;;;;;;5048626;28;20198;-71
2022/08/21 02:08:38;;;;;;;8.73;7.93;;;;;;;;;;5063241;28;20187;-72
2022/08/21 02:11:05;;;;;;;9.67;8.77;;;;;;;;;;5048468;28;20285;-71
2022/08/21 02:13:32;;;;;;;10.07;8.73;;;;;;;;;;5048405;28;20226;-71
2022/08/21 02:15:59;;;;;;;9.97;8.10;;;;;;;;;;5047805;28;20682;-71
2022/08/21 02:18:25;;;;;;;9.60;8.70;;;;;;;;;;5048335;28;20277;-72
2022/08/21 02:20:52;;;;;;;9.77;8.77;;;;;;;;;;5046545;28;20197;-72
2022/08/21 02:23:21;;;;;;;9.70;8.70;;;;;;;;;;5048121;28;20249;-71
2022/08/21 02:26:00;;;;;;;10.00;8.97;;;;;;;;;;5048105;28;20187;-71
2022/08/21 02:28:26;;;;;;;9.90;9.00;;;;;;;;;;5048467;28;20217;-71
2022/08/21 02:30:53;;;;;;;10.53;9.53;;;;;;;;;;5046850;28;20266;-72
2022/08/21 02:33:20;;;;;;;11.20;10.10;;;;;;;;;;5046451;28;20218;-72
2022/08/21 02:35:47;;;;;;;9.93;8.83;;;;;;;;;;5047908;28;20670;-71
2022/08/21 02:38:15;;;;;;;10.03;9.13;;;;;;;;;;5047686;28;20280;-71
2022/08/21 02:40:43;;;;;;;11.17;9.97;;;;;;;;;;5063466;28;20214;-72
2022/08/21 02:47:43;;;;;;;10.50;9.40;;;;;;;;;;5007043;28;20287;-71
2022/08/21 02:51:23;;;;;;;11.27;10.20;;;;;;;;;;4985538;28;20303;-71
2022/08/21 02:55:03;;;;;;;11.37;10.27;;;;;;;;;;4967442;28;20203;-71
2022/08/21 02:58:06;;;;;;;10.77;9.67;;;;;;;;;;4994700;28;20200;-70
2022/08/21 03:05:12;;;;;;;11.00;9.83;;;;;;;;;;4981012;28;20242;-71
2022/08/21 03:08:09;;;;;;;11.10;10.00;;;;;;;;;;4977713;28;20281;-72
2022/08/21 03:10:50;;;;;;;11.43;10.33;;;;;;;;;;4974243;28;20241;-71
2022/08/21 03:14:28;;;;;;;11.73;10.27;;;;;;;;;;4994277;28;20211;-71
2022/08/21 03:17:37;;;;;;;12.57;10.63;;;;;;;;;;5003134;28;20267;-72
2022/08/21 03:20:32;;;;;;;10.63;9.60;;;;;;;;;;4996945;28;20224;-71
2022/08/21 03:23:30;;;;;;;10.83;9.73;;;;;;;;;;5012884;28;20188;-71
2022/08/21 03:25:59;;;;;;;10.80;9.57;;;;;;;;;;5032999;28;20199;-71
2022/08/21 03:28:28;;;;;;;10.10;9.10;;;;;;;;;;5050059;28;20195;-72
2022/08/21 03:31:02;;;;;;;10.87;9.67;;;;;;;;;;5047288;28;20191;-71
2022/08/21 03:33:38;;;;;;;11.90;10.70;;;;;;;;;;5035234;28;20186;-72
2022/08/21 03:36:07;;;;;;;11.27;10.07;;;;;;;;;;5033409;28;20214;-71
2022/08/21 03:38:34;;;;;;;11.07;9.93;;;;;;;;;;5049764;28;20203;-71
2022/08/21 03:41:01;;;;;;;15.33;11.07;;;;;;;;;;5033480;28;20214;-72
2022/08/21 03:43:28;;;;;;;11.73;10.13;;;;;;;;;;5051250;28;20274;-71
2022/08/21 03:45:58;;;;;;;13.80;10.77;;;;;;;;;;5051065;28;20336;-71
2022/08/21 03:48:32;;;;;;;13.20;10.47;;;;;;;;;;5050777;28;20193;-71
2022/08/21 03:50:59;;;;;;;14.97;10.00;;;;;;;;;;5050440;28;20274;-71
2022/08/21 03:53:26;;;;;;;12.10;10.47;;;;;;;;;;5033220;28;20266;-71
2022/08/21 03:55:53;;;;;;;11.63;10.43;;;;;;;;;;5033160;28;20755;-72
2022/08/21 03:58:21;;;;;;;12.43;10.10;;;;;;;;;;5016793;28;20226;-71
2022/08/21 04:00:49;;;;;;;11.37;10.17;;;;;;;;;;5033206;28;20233;-71
2022/08/21 04:03:16;;;;;;;11.70;10.50;;;;;;;;;;5032741;28;20286;-72
2022/08/21 04:05:42;;;;;;;11.87;10.17;;;;;;;;;;5049010;28;20519;-71
2022/08/21 04:08:09;;;;;;;13.17;10.83;;;;;;;;;;5049592;28;20195;-71
2022/08/21 04:10:36;;;;;;;11.77;10.43;;;;;;;;;;5050317;28;20214;-72
2022/08/21 04:13:03;;;;;;;12.73;10.57;;;;;;;;;;5032861;28;20227;-72
2022/08/21 04:15:30;;;;;;;11.70;10.60;;;;;;;;;;5049075;28;20198;-72
2022/08/21 04:17:57;;;;;;;11.87;10.63;;;;;;;;;;5050495;28;20289;-72
2022/08/21 04:20:24;;;;;;;14.90;10.90;;;;;;;;;;5050437;28;20190;-72
2022/08/21 04:22:51;;;;;;;12.77;10.43;;;;;;;;;;5050537;28;20182;-71
2022/08/21 04:25:19;;;;;;;12.40;11.10;;;;;;;;;;5049234;28;20195;-73
2022/08/21 04:27:46;;;;;;;13.17;10.73;;;;;;;;;;5032483;28;20225;-71
2022/08/21 04:30:13;;;;;;;12.43;9.90;;;;;;;;;;5032103;28;20207;-71
2022/08/21 04:32:47;;;;;;;14.07;10.57;;;;;;;;;;5032288;28;20187;-72
2022/08/21 04:35:17;;;;;;;12.30;10.77;;;;;;;;;;5031992;28;20723;-76
2022/08/21 04:37:48;;;;;;;11.53;10.33;;;;;;;;;;5049849;28;20307;-72
2022/08/21 04:40:15;;;;;;;18.67;10.60;;;;;;;;;;5049577;28;20289;-74
2022/08/21 04:42:44;;;;;;;11.93;10.50;;;;;;;;;;5048875;28;20195;-72
2022/08/21 04:45:19;;;;;;;11.30;10.10;;;;;;;;;;5049017;28;20195;-72
2022/08/21 04:47:47;;;;;;;12.77;10.40;;;;;;;;;;5049158;28;20244;-76
2022/08/21 04:50:19;;;;;;;11.20;10.00;;;;;;;;;;5032000;28;20198;-76
2022/08/21 04:53:02;;;;;;;10.13;9.13;;;;;;;;;;5036144;28;20215;-73
2022/08/21 04:55:28;;;;;;;11.23;9.17;;;;;;;;;;5032641;28;20190;-72
2022/08/21 04:57:56;;;;;;;8.57;7.83;;;;;;;;;;5049764;28;20575;-75
2022/08/21 05:00:24;;;;;;;9.10;7.70;;;;;;;;;;5049784;28;20198;-71
2022/08/21 05:02:54;;;;;;;8.30;7.50;;;;;;;;;;5015848;28;20244;-75
2022/08/21 05:05:21;;;;;;;7.63;6.83;;;;;;;;;;5031915;28;20190;-72
2022/08/21 05:07:47;;;;;;;7.30;6.37;;;;;;;;;;5049528;28;20181;-74
2022/08/21 05:10:32;;;;;;;6.40;5.80;;;;;;;;;;5018082;28;20209;-76
2022/08/21 05:13:00;;;;;;;6.20;5.70;;;;;;;;;;5031878;28;20225;-77
2022/08/21 05:15:27;;;;;;;5.67;5.20;;;;;;;;;;5031784;28;20219;-77
2022/08/21 05:17:54;;;;;;;6.50;5.50;;;;;;;;;;5031250;28;20210;-72
2022/08/21 05:20:27;;;;;;;6.23;5.57;;;;;;;;;;5049053;28;20237;-78
2022/08/21 05:22:54;;;;;;;6.67;5.40;;;;;;;;;;5031165;28;20210;-73
2022/08/21 05:25:21;;;;;;;5.50;5.00;;;;;;;;;;5031596;28;20236;-72
2022/08/21 05:27:50;;;;;;;6.00;5.40;;;;;;;;;;5045274;28;20262;-78
2022/08/21 05:30:18;;;;;;;6.13;5.33;;;;;;;;;;5031871;28;20692;-74
2022/08/21 05:33:03;;;;;;;6.63;6.03;;;;;;;;;;5033905;28;20257;-77
2022/08/21 05:35:29;;;;;;;7.07;6.37;;;;;;;;;;5031629;28;20194;-73
2022/08/21 05:37:56;;;;;;;6.00;5.50;;;;;;;;;;5014964;28;20295;-73
2022/08/21 05:40:23;;;;;;;6.83;6.13;;;;;;;;;;5049552;28;20197;-75
2022/08/21 05:42:50;;;;;;;10.87;9.93;;;;;;;;;;5031071;28;20203;-75
2022/08/21 05:45:23;;;;;;;9.90;8.93;;;;;;;;;;5049005;28;20191;-74
2022/08/21 05:48:19;;;;;;;10.47;9.47;;;;;;;;;;5033872;28;20218;-71
2022/08/21 05:50:46;;;;;;;8.70;7.97;;;;;;;;;;5030794;28;20543;-74
2022/08/21 05:53:13;;;;;;;9.00;8.10;;;;;;;;;;5048491;28;20194;-75
2022/08/21 05:55:40;;;;;;;7.70;7.00;;;;;;;;;;5048936;28;20195;-75
2022/08/21 05:58:16;;;;;;;7.30;6.60;;;;;;;;;;5031843;28;20230;-73
2022/08/21 06:00:43;;;;;;;11.33;10.33;;;;;;;;;;5030260;28;20629;-77
2022/08/21 06:03:11;;;;;;;7.63;6.93;;;;;;;;;;5048460;28;20190;-77
2022/08/21 06:05:38;;;;;;;8.10;7.17;;;;;;;;;;5024422;28;20218;-77
2022/08/21 06:08:05;;;;;;;7.30;6.60;;;;;;;;;;5030357;28;20244;-77
2022/08/21 06:10:32;;;;;;;7.80;7.10;;;;;;;;;;5030908;28;20187;-77
2022/08/21 06:12:58;;;;;;;7.07;6.47;;;;;;;;;;5013701;28;20231;-77
2022/08/21 06:15:25;;;;;;;8.10;7.40;;;;;;;;;;5030846;28;20550;-75
2022/08/21 06:17:53;;;;;;;7.90;6.50;;;;;;;;;;5030565;28;20297;-77
2022/08/21 06:20:20;;;;;;;6.40;5.60;;;;;;;;;;5030308;28;20194;-77
2022/08/21 06:22:46;;;;;;;5.67;5.17;;;;;;;;;;5048293;28;20581;-77
2022/08/21 06:25:13;;;;;;;5.43;4.87;;;;;;;;;;5048555;28;20880;-77
2022/08/21 06:27:40;;;;;;;5.00;4.60;;;;;;;;;;5047722;28;20273;-77
2022/08/21 06:30:07;;;;;;;5.53;4.90;;;;;;;;;;5048202;28;20209;-76
2022/08/21 06:32:34;;;;;;;5.10;4.47;;;;;;;;;;5048240;28;21004;-77
2022/08/21 06:35:01;;;;;;;5.80;5.20;;;;;;;;;;5047750;28;20261;-73
2022/08/21 06:37:28;;;;;;;6.10;5.50;;;;;;;;;;5046354;28;20333;-72
2022/08/21 06:39:54;;;;;;;6.17;5.17;;;;;;;;;;5047750;28;20191;-73
2022/08/21 06:42:24;;;;;;;6.27;5.37;;;;;;;;;;5047695;28;20187;-73
2022/08/21 06:45:08;;;;;;;5.50;4.97;;;;;;;;;;5046772;28;20167;-72
2022/08/21 06:47:35;;;;;;;5.77;5.20;;;;;;;;;;5046532;28;20205;-72
2022/08/21 06:50:02;;;;;;;5.67;5.13;;;;;;;;;;5047718;28;20261;-71
2022/08/21 06:52:29;;;;;;;6.80;5.60;;;;;;;;;;5029256;28;20758;-72
2022/08/21 06:54:56;;;;;;;5.70;5.20;;;;;;;;;;5033965;28;20195;-76
2022/08/21 06:57:22;;;;;;;6.03;5.20;;;;;;;;;;5047792;28;20293;-76
2022/08/21 06:59:50;;;;;;;6.07;4.90;;;;;;;;;;5047792;28;20194;-76
2022/08/21 07:02:17;;;;;;;5.17;4.70;;;;;;;;;;5013322;28;20285;-75
2022/08/21 07:04:44;;;;;;;5.87;5.27;;;;;;;;;;5047787;28;20199;-75
2022/08/21 07:07:10;;;;;;;5.53;5.03;;;;;;;;;;5047993;28;20191;-75
2022/08/21 07:09:37;;;;;;;6.77;5.40;;;;;;;;;;5047660;28;20670;-75
2022/08/21 07:12:04;;;;;;;6.23;4.67;;;;;;;;;;5047554;28;20245;-75
2022/08/21 07:14:31;;;;;;;6.33;5.27;;;;;;;;;;5047583;28;20205;-76
2022/08/21 07:16:58;;;;;;;7.00;5.23;;;;;;;;;;5047458;28;20297;-76
2022/08/21 07:19:25;;;;;;;6.80;5.03;;;;;;;;;;5047635;28;20244;-75
2022/08/21 07:21:53;;;;;;;5.70;5.10;;;;;;;;;;5048076;28;20278;-76
2022/08/21 07:24:19;;;;;;;6.07;5.10;;;;;;;;;;5030075;28;20274;-76
2022/08/21 07:26:46;;;;;;;5.93;5.30;;;;;;;;;;5047568;28;20191;-75
2022/08/21 07:29:14;;;;;;;6.13;5.13;;;;;;;;;;5047708;28;20543;-76
2022/08/21 07:31:41;;;;;;;7.67;5.10;;;;;;;;;;5048423;28;20620;-75
2022/08/21 07:34:08;;;;;;;8.50;5.33;;;;;;;;;;5047740;28;20195;-75
2022/08/21 07:36:35;;;;;;;5.77;5.10;;;;;;;;;;5047540;28;20195;-75
2022/08/21 07:39:02;;;;;;;5.70;5.10;;;;;;;;;;5047316;28;20297;-75
2022/08/21 07:41:31;;;;;;;5.97;5.20;;;;;;;;;;5030122;28;20253;-74
2022/08/21 07:43:58;;;;;;;5.57;5.00;;;;;;;;;;5047530;28;20277;-73
2022/08/21 07:46:25;;;;;;;8.10;4.67;;;;;;;;;;5049988;28;20273;-74
2022/08/21 07:48:52;;;;;;;6.07;4.80;;;;;;;;;;5049652;28;20598;-74
2022/08/21 07:51:36;;;;;;;5.30;4.80;;;;;;;;;;5050968;28;20210;-74
2022/08/21 07:54:03;;;;;;;5.87;4.63;;;;;;;;;;5033239;28;20187;-74
2022/08/21 07:56:47;;;;;;;5.50;4.53;;;;;;;;;;5050788;28;20249;-74
2022/08/21 07:59:14;;;;;;;6.30;4.93;;;;;;;;;;5049549;28;20301;-74
2022/08/21 08:01:58;;;;;;;8.47;5.10;;;;;;;;;;5050627;28;20217;-74
2022/08/21 08:04:25;;;;;;;7.03;4.97;;;;;;;;;;5050323;28;20278;-73
2022/08/21 08:06:52;;;;;;;6.13;4.70;;;;;;;;;;5043024;28;20187;-73
2022/08/21 08:09:20;;;;;;;8.17;4.97;;;;;;;;;;5033313;28;20194;-73
2022/08/21 08:11:46;;;;;;;6.67;4.60;;;;;;;;;;5030589;28;20362;-73
2022/08/21 08:14:15;;;;;;;8.40;5.03;;;;;;;;;;5046579;28;20191;-72
2022/08/21 08:16:42;;;;;;;6.20;4.33;;;;;;;;;;5047783;28;20192;-72
2022/08/21 08:19:27;;;;;;;5.63;4.23;;;;;;;;;;5043707;28;20281;-71
2022/08/21 08:21:54;;;;;;;5.70;4.30;;;;;;;;;;5048412;28;20210;-73
2022/08/21 08:24:21;;;;;;;5.50;4.13;;;;;;;;;;5044731;28;20842;-69
2022/08/21 08:26:48;;;;;;;5.63;4.63;;;;;;;;;;5047826;28;20651;-76
2022/08/21 08:29:20;;;;;;;5.87;4.33;;;;;;;;;;5048039;28;20838;-75
2022/08/21 08:31:50;;;;;;;5.73;3.83;;;;;;;;;;5046537;28;20195;-73
2022/08/21 08:34:19;;;;;;;4.97;4.10;;;;;;;;;;5039701;28;20191;-73
2022/08/21 08:36:51;;;;;;;5.77;4.77;;;;;;;;;;5043471;28;20863;-73
2022/08/21 08:39:17;;;;;;;5.83;4.70;;;;;;;;;;5050025;28;20195;-74
2022/08/21 08:42:04;;;;;;;5.47;4.60;;;;;;;;;;5024688;28;20220;-75
2022/08/21 08:44:55;;;;;;;6.13;4.27;;;;;;;;;;5049735;28;20187;-73
2022/08/21 08:47:23;;;;;;;5.23;4.23;;;;;;;;;;5046688;28;20194;-76
2022/08/21 08:49:53;;;;;;;4.30;3.90;;;;;;;;;;5047891;28;20256;-74
2022/08/21 08:52:46;;;;;;;5.83;4.00;;;;;;;;;;5047306;28;20199;-74
2022/08/21 08:55:33;;;;;;;4.50;3.53;;;;;;;;;;5043551;28;20214;-73
2022/08/21 08:58:02;;;;;;;5.90;4.30;;;;;;;;;;5026708;28;20252;-73
2022/08/21 09:00:30;;;;;;;8.50;4.17;;;;;;;;;;5026068;28;20269;-73
2022/08/21 09:02:59;;;;;;;5.50;3.87;;;;;;;;;;5027519;28;20213;-73
2022/08/21 09:05:28;;;;;;;6.43;4.20;;;;;;;;;;5044131;28;20557;-72
2022/08/21 09:07:55;;;;;;;6.43;4.03;;;;;;;;;;5030458;28;20210;-72
2022/08/21 09:10:25;;;;;;;5.43;4.03;;;;;;;;;;5029437;28;20927;-73
2022/08/21 09:12:59;;;;;;;5.93;4.07;;;;;;;;;;5010191;28;20234;-74
2022/08/21 09:15:46;;;;;;;5.17;3.77;;;;;;;;;;5025226;28;20205;-73
2022/08/21 09:18:17;;;;;;;5.00;3.90;;;;;;;;;;5055011;28;20222;-72
2022/08/21 09:20:54;;;;;;;8.00;3.90;;;;;;;;;;5029995;28;20206;-72
2022/08/21 09:23:24;;;;;;;4.23;3.50;;;;;;;;;;5044578;28;20244;-72
2022/08/21 09:26:18;;;;;;;6.20;3.53;;;;;;;;;;5048194;28;20174;-73
2022/08/21 09:28:47;;;;;;;6.47;3.73;;;;;;;;;;5029183;28;20193;-72
2022/08/21 09:31:20;;;;;;;5.83;3.63;;;;;;;;;;5027090;28;20249;-72
2022/08/21 09:33:47;;;;;;;6.30;3.83;;;;;;;;;;5023918;28;20281;-71
2022/08/21 09:36:22;;;;;;;4.47;3.77;;;;;;;;;;5045513;28;20191;-72
2022/08/21 09:39:07;;;;;;;4.53;3.50;;;;;;;;;;5045912;28;20290;-71
2022/08/21 09:41:35;;;;;;;7.50;4.00;;;;;;;;;;5013760;28;20207;-72
2022/08/21 09:44:02;;;;;;;5.93;3.40;;;;;;;;;;5047091;28;20977;-72
2022/08/21 09:46:29;;;;;;;3.80;3.10;;;;;;;;;;5031474;28;20658;-72
2022/08/21 09:48:58;;;;;;;4.23;2.83;;;;;;;;;;5046083;28;20178;-73
2022/08/21 09:51:32;;;;;;;4.10;2.87;;;;;;;;;;5047341;28;20589;-73
2022/08/21 09:54:04;;;;;;;3.90;2.90;;;;;;;;;;5045484;28;20270;-73
2022/08/21 09:59:33;;;;;;;4.17;3.00;;;;;;;;;;5047781;28;20268;-72
2022/08/21 10:02:35;;;;;;;4.73;2.97;;;;;;;;;;5047082;28;20187;-71
2022/08/21 10:05:03;;;;;;;4.87;3.60;;;;;;;;;;4999189;28;21042;-72
2022/08/21 10:07:31;;;;;;;7.30;3.63;;;;;;;;;;5039677;28;20274;-73
2022/08/21 10:10:05;;;;;;;5.00;3.47;;;;;;;;;;5028769;28;20617;-72
2022/08/21 10:12:38;;;;;;;4.90;3.50;;;;;;;;;;5029675;28;20222;-72
2022/08/21 10:15:09;;;;;;;7.53;3.70;;;;;;;;;;5046085;28;20249;-73
2022/08/21 10:17:41;;;;;;;6.97;3.30;;;;;;;;;;5047044;28;20265;-72
2022/08/21 10:20:10;;;;;;;5.60;3.53;;;;;;;;;;5046745;28;20302;-72
2022/08/21 10:22:37;;;;;;;4.10;3.17;;;;;;;;;;5029058;28;20179;-74
2022/08/21 10:25:04;;;;;;;4.47;3.43;;;;;;;;;;5037407;28;20281;-72
2022/08/21 10:27:37;;;;;;;6.27;3.50;;;;;;;;;;5048306;28;20194;-72
2022/08/21 10:30:14;;;;;;;5.93;3.60;;;;;;;;;;5046985;28;20187;-71
2022/08/21 10:32:41;;;;;;;5.37;3.70;;;;;;;;;;5029370;28;20281;-72
2022/08/21 10:35:11;;;;;;;6.60;3.93;;;;;;;;;;5045684;28;20191;-71
2022/08/21 10:37:41;;;;;;;5.07;3.90;;;;;;;;;;5030804;28;20260;-71
2022/08/21 10:40:16;;;;;;;4.17;3.77;;;;;;;;;;5038556;28;20183;-72
2022/08/21 10:42:49;;;;;;;6.93;4.03;;;;;;;;;;5023208;28;20662;-72
2022/08/21 10:45:36;;;;;;;4.47;3.97;;;;;;;;;;5043236;28;20574;-71
2022/08/21 10:48:04;;;;;;;5.33;3.63;;;;;;;;;;5047105;28;20667;-72
2022/08/21 10:50:38;;;;;;;5.23;3.30;;;;;;;;;;5011686;28;20189;-72
2022/08/21 10:53:05;;;;;;;3.53;2.80;;;;;;;;;;5028154;28;20252;-72
2022/08/21 10:55:33;;;;;;;5.40;3.13;;;;;;;;;;5048343;28;20179;-72
2022/08/21 10:58:05;;;;;;;4.20;2.80;;;;;;;;;;5045525;28;20253;-72
2022/08/21 11:00:50;;;;;;;6.40;3.13;;;;;;;;;;5028759;28;20684;-72
2022/08/21 11:03:44;;;;;;;3.10;2.80;;;;;;;;;;5047069;28;20197;-72
2022/08/21 11:06:18;;;;;;;3.87;2.50;;;;;;;;;;5045341;28;20676;-72
2022/08/21 11:08:49;;;;;;;4.37;2.90;;;;;;;;;;5028876;28;20270;-72
2022/08/21 11:11:25;;;;;;;4.07;2.37;;;;;;;;;;5047879;28;20725;-72
2022/08/21 11:14:01;;;;;;;4.87;2.60;;;;;;;;;;5045392;28;20262;-71
2022/08/21 11:16:48;;;;;;;3.43;2.33;;;;;;;;;;5047263;28;20266;-71
2022/08/21 11:19:17;;;;;;;4.47;2.70;;;;;;;;;;5029670;28;20214;-73
2022/08/21 11:21:46;;;;;;;5.30;2.70;;;;;;;;;;5033848;28;20189;-72
2022/08/21 11:24:32;;;;;;;4.57;2.47;;;;;;;;;;5032196;28;20206;-71
2022/08/21 11:27:23;;;;;;;4.77;2.20;;;;;;;;;;5018970;28;20217;-71
2022/08/21 11:29:52;;;;;;;3.33;1.97;;;;;;;;;;5051438;28;20277;-71
2022/08/21 11:32:37;;;;;;;2.27;2.00;;;;;;;;;;5050674;28;20658;-71
2022/08/21 11:35:11;;;;;;;2.97;1.97;;;;;;;;;;5047315;28;20210;-72
2022/08/21 11:37:47;;;;;;;3.80;2.10;;;;;;;;;;5050467;28;20662;-72
2022/08/21 11:40:29;;;;;;;3.03;2.20;;;;;;;;;;5038072;28;20197;-71
2022/08/21 11:43:01;;;;;;;4.43;2.40;;;;;;;;;;5015790;28;20195;-71
2022/08/21 11:45:31;;;;;;;3.00;1.83;;;;;;;;;;5031856;28;20199;-71
2022/08/21 11:48:16;;;;;;;3.00;2.13;;;;;;;;;;5032507;28;20210;-70
2022/08/21 11:50:43;;;;;;;2.50;2.20;;;;;;;;;;5042068;28;20199;-72
2022/08/21 11:53:29;;;;;;;5.03;2.20;;;;;;;;;;5038124;28;20182;-72
2022/08/21 11:56:00;;;;;;;4.23;2.40;;;;;;;;;;5016237;28;20293;-73
2022/08/21 11:58:31;;;;;;;3.97;2.30;;;;;;;;;;5050976;28;20959;-74
2022/08/21 12:01:05;;;;;;;2.67;2.13;;;;;;;;;;5033493;28;20183;-75
2022/08/21 12:03:54;;;;;;;3.73;2.30;;;;;;;;;;5035431;28;20181;-74
2022/08/21 12:06:28;;;;;;;3.37;2.20;;;;;;;;;;5044731;28;20191;-75
2022/08/21 12:09:00;;;;;;;3.10;2.27;;;;;;;;;;5033103;28;20218;-75
2022/08/21 12:11:27;;;;;;;4.30;2.20;;;;;;;;;;5009626;28;20550;-75
2022/08/21 12:13:58;;;;;;;5.17;2.77;;;;;;;;;;5050623;28;20187;-74
2022/08/21 12:16:32;;;;;;;4.07;2.27;;;;;;;;;;5050754;28;20281;-74
2022/08/21 12:19:04;;;;;;;4.70;2.10;;;;;;;;;;5050656;28;20224;-76
2022/08/21 12:21:32;;;;;;;4.83;2.30;;;;;;;;;;5033242;28;20236;-74
2022/08/21 12:23:59;;;;;;;5.10;2.10;;;;;;;;;;5016578;28;20270;-74
2022/08/21 12:26:29;;;;;;;4.17;2.00;;;;;;;;;;5049154;28;20275;-74
2022/08/21 12:29:05;;;;;;;4.40;2.37;;;;;;;;;;5032517;28;20309;-74
2022/08/21 12:31:32;;;;;;;3.17;2.10;;;;;;;;;;5032173;28;20523;-74
2022/08/21 12:34:16;;;;;;;2.37;1.90;;;;;;;;;;5034837;28;20178;-74
2022/08/21 12:36:53;;;;;;;4.03;1.80;;;;;;;;;;5030959;28;20255;-74
2022/08/21 12:39:27;;;;;;;2.23;1.57;;;;;;;;;;5050014;28;20214;-74
2022/08/21 12:42:00;;;;;;;5.17;1.73;;;;;;;;;;5019027;28;20205;-74
2022/08/21 12:44:30;;;;;;;3.00;1.80;;;;;;;;;;5049694;28;20232;-75
2022/08/21 12:47:05;;;;;;;3.73;2.20;;;;;;;;;;5032430;28;20740;-75
2022/08/21 12:49:36;;;;;;;3.00;2.00;;;;;;;;;;5032815;28;20195;-76
2022/08/21 12:52:20;;;;;;;4.20;2.10;;;;;;;;;;5015383;28;20604;-76
2022/08/21 12:54:48;;;;;;;4.93;2.27;;;;;;;;;;5048621;28;20598;-76
2022/08/21 12:57:25;;;;;;;5.70;2.27;;;;;;;;;;5049966;28;20653;-76
2022/08/21 12:59:58;;;;;;;5.00;2.47;;;;;;;;;;5032270;28;20301;-75
2022/08/21 13:02:26;;;;;;;4.00;2.30;;;;;;;;;;5014790;28;20563;-75
2022/08/21 13:04:56;;;;;;;5.50;2.57;;;;;;;;;;5032536;28;20538;-78
2022/08/21 13:07:27;;;;;;;7.70;2.40;;;;;;;;;;5048611;28;20319;-73
2022/08/21 13:09:56;;;;;;;5.37;2.37;;;;;;;;;;5049639;28;20229;-73
2022/08/21 13:12:23;;;;;;;5.70;2.20;;;;;;;;;;5030685;28;20292;-75
2022/08/21 13:14:59;;;;;;;3.93;2.40;;;;;;;;;;5047588;28;20185;-70
2022/08/21 13:17:29;;;;;;;4.13;2.40;;;;;;;;;;5036078;28;20714;-74
2022/08/21 13:20:00;;;;;;;4.40;2.23;;;;;;;;;;5027667;28;20211;-72
2022/08/21 13:22:45;;;;;;;8.00;2.40;;;;;;;;;;5045228;28;20181;-73
2022/08/21 13:25:13;;;;;;;4.97;2.40;;;;;;;;;;5046456;28;20194;-74
2022/08/21 13:27:42;;;;;;;7.03;2.30;;;;;;;;;;5030813;28;20793;-73
2022/08/21 13:30:13;;;;;;;4.17;2.10;;;;;;;;;;5047138;28;20269;-74
2022/08/21 13:32:45;;;;;;;3.57;2.00;;;;;;;;;;5046663;28;20187;-75
2022/08/21 13:35:20;;;;;;;4.03;2.03;;;;;;;;;;5043092;28;20222;-75
2022/08/21 13:37:48;;;;;;;4.40;2.10;;;;;;;;;;5027355;28;20199;-75
2022/08/21 13:40:18;;;;;;;4.30;2.20;;;;;;;;;;5046156;28;20243;-75
2022/08/21 13:42:48;;;;;;;5.17;2.30;;;;;;;;;;5040824;28;20194;-74
2022/08/21 13:45:16;;;;;;;3.63;2.40;;;;;;;;;;5006601;28;20226;-74
2022/08/21 13:47:44;;;;;;;4.83;2.13;;;;;;;;;;5048398;28;20257;-75
2022/08/21 13:50:11;;;;;;;4.47;2.13;;;;;;;;;;5044896;28;20195;-76
2022/08/21 13:52:44;;;;;;;4.13;1.80;;;;;;;;;;5045744;28;20187;-75
2022/08/21 13:55:15;;;;;;;7.27;1.77;;;;;;;;;;5039342;28;20916;-75
2022/08/21 13:57:42;;;;;;;2.47;1.73;;;;;;;;;;5052864;28;20271;-74
2022/08/21 14:00:38;;;;;;;4.67;2.10;;;;;;;;;;5051030;28;20276;-74
2022/08/21 14:03:06;;;;;;;2.90;1.70;;;;;;;;;;5010069;28;20201;-75
2022/08/21 14:05:35;;;;;;;4.40;1.70;;;;;;;;;;5035726;28;20269;-74
2022/08/21 14:08:02;;;;;;;4.57;1.93;;;;;;;;;;5039203;28;20193;-74
2022/08/21 14:10:30;;;;;;;4.07;2.10;;;;;;;;;;5036262;28;20191;-75
2022/08/21 14:16:59;;;;;;;2.53;1.70;;;;;;;;;;5025805;28;21011;-70
2022/08/21 14:19:27;;;;;;;5.20;1.90;;;;;;;;;;5013533;28;20232;-72
2022/08/21 14:21:54;;;;;;;3.70;2.00;;;;;;;;;;5037552;28;20215;-72
2022/08/21 14:24:25;;;;;;;6.60;2.33;;;;;;;;;;5022140;28;20199;-75
2022/08/21 14:26:53;;;;;;;4.63;2.00;;;;;;;;;;5041283;28;20722;-74
2022/08/21 14:29:20;;;;;;;3.37;1.87;;;;;;;;;;5040858;28;20198;-72
2022/08/21 14:31:53;;;;;;;4.13;1.90;;;;;;;;;;5038206;28;20221;-74
2022/08/21 14:34:20;;;;;;;3.87;1.70;;;;;;;;;;5036680;28;20199;-75
2022/08/21 14:36:48;;;;;;;5.33;2.17;;;;;;;;;;5023099;28;20190;-75
2022/08/21 14:39:16;;;;;;;3.33;1.70;;;;;;;;;;5021563;28;20218;-75
2022/08/21 14:41:43;;;;;;;4.33;1.80;;;;;;;;;;5040058;28;20294;-76
2022/08/21 14:44:12;;;;;;;4.07;2.03;;;;;;;;;;5036274;28;20738;-74
2022/08/21 14:46:39;;;;;;;2.33;1.90;;;;;;;;;;5034785;28;20202;-74
2022/08/21 14:49:26;;;;;;;3.57;1.93;;;;;;;;;;5024217;28;20195;-74
2022/08/21 14:51:57;;;;;;;4.10;2.00;;;;;;;;;;5038364;28;20193;-75
2022/08/21 14:54:25;;;;;;;3.27;2.07;;;;;;;;;;5043335;28;20240;-75
2022/08/21 14:57:04;;;;;;;4.43;2.10;;;;;;;;;;5045087;28;20305;-73
2022/08/21 14:59:32;;;;;;;4.73;2.23;;;;;;;;;;5035641;28;20230;-75
2022/08/21 15:02:00;;;;;;;3.73;2.20;;;;;;;;;;5027135;28;20186;-73
2022/08/21 15:04:27;;;;;;;7.80;2.60;;;;;;;;;;5042988;28;20199;-75
2022/08/21 15:06:54;;;;;;;3.40;2.33;;;;;;;;;;5025559;28;21079;-75
2022/08/21 15:09:21;;;;;;;5.47;2.30;;;;;;;;;;5033917;28;20328;-74
2022/08/21 15:11:48;;;;;;;6.50;2.30;;;;;;;;;;5044310;28;20218;-71
2022/08/21 15:14:27;;;;;;;7.70;2.07;;;;;;;;;;5043494;28;20689;-76
2022/08/21 15:16:54;;;;;;;5.13;2.10;;;;;;;;;;5042786;28;20249;-76
2022/08/21 15:19:21;;;;;;;8.23;2.57;;;;;;;;;;5014149;28;20293;-69
2022/08/21 15:21:48;;;;;;;4.63;1.93;;;;;;;;;;5048888;28;20203;-74
2022/08/21 15:24:15;;;;;;;4.80;2.07;;;;;;;;;;5044340;28;20624;-72
2022/08/21 15:26:42;;;;;;;8.90;3.00;;;;;;;;;;5036233;28;20254;-69
2022/08/21 15:29:09;;;;;;;5.53;2.47;;;;;;;;;;5046313;28;21069;-71
2022/08/21 15:31:37;;;;;;;4.80;1.90;;;;;;;;;;5023411;28;20777;-72
2022/08/21 15:34:05;;;;;;;5.57;2.63;;;;;;;;;;5048278;28;20190;-71
2022/08/21 15:36:32;;;;;;;7.67;2.40;;;;;;;;;;5048632;28;20190;-71
2022/08/21 15:39:00;;;;;;;7.33;3.00;;;;;;;;;;5040389;28;20211;-72
2022/08/21 15:41:27;;;;;;;5.77;2.40;;;;;;;;;;5044756;28;20183;-72
2022/08/21 15:43:55;;;;;;;6.47;2.50;;;;;;;;;;5029528;28;20215;-72
2022/08/21 15:46:22;;;;;;;5.00;2.27;;;;;;;;;;5044412;28;20257;-72
2022/08/21 15:48:49;;;;;;;9.17;3.27;;;;;;;;;;5048119;28;20203;-72
2022/08/21 15:51:16;;;;;;;7.10;3.43;;;;;;;;;;5045139;28;20732;-72
2022/08/21 15:53:44;;;;;;;6.70;2.37;;;;;;;;;;5029668;28;20182;-72
2022/08/21 15:56:17;;;;;;;7.50;3.20;;;;;;;;;;5030970;28;20202;-72
2022/08/21 15:58:45;;;;;;;6.03;2.70;;;;;;;;;;5045185;28;20187;-72
2022/08/21 16:01:12;;;;;;;4.70;2.07;;;;;;;;;;5039125;28;20211;-74
2022/08/21 16:03:39;;;;;;;4.37;2.10;;;;;;;;;;5034441;28;20194;-77